createdAt,value
2022-08-30T00:00:16.634Z,95.30
2022-08-30T00:02:45.024Z,95.60
2022-08-30T00:05:13.377Z,95.50
2022-08-30T00:07:40.700Z,95.60
2022-08-30T00:10:08.426Z,95.80
2022-08-30T00:12:35.931Z,96.10
2022-08-30T00:15:09.691Z,96.50
2022-08-30T00:17:43.449Z,96.70
2022-08-30T00:20:15.923Z,97.30
2022-08-30T00:22:43.165Z,97.40
2022-08-30T00:25:14.063Z,97.50
2022-08-30T00:27:45.269Z,97.80
2022-08-30T00:30:15.133Z,97.80
2022-08-30T00:32:42.374Z,97.70
2022-08-30T00:35:14.189Z,98.10
2022-08-30T00:37:44.481Z,98.30
2022-08-30T00:40:34.847Z,98.50
2022-08-30T00:43:06.464Z,98.60
2022-08-30T00:45:35.927Z,99.10
2022-08-30T00:48:07.218Z,99.40
2022-08-30T00:50:42.021Z,99.50
2022-08-30T00:53:16.128Z,99.40
2022-08-30T00:55:49.021Z,99.30
2022-08-30T00:58:21.773Z,99.50
2022-08-30T01:00:51.224Z,99.80
2022-08-30T01:03:21.113Z,99.90
2022-08-30T01:05:52.015Z,99.90
2022-08-30T01:08:22.655Z,99.90
2022-08-30T01:10:54.880Z,99.90
2022-08-30T01:13:23.721Z,99.90
2022-08-30T01:15:53.955Z,99.90
2022-08-30T01:18:25.803Z,99.90
2022-08-30T01:21:10.959Z,99.90
2022-08-30T01:23:42.059Z,99.90
2022-08-30T01:26:10.726Z,99.90
2022-08-30T01:28:42.517Z,99.90
2022-08-30T01:31:12.287Z,99.90
2022-08-30T01:33:40.048Z,99.90
2022-08-30T01:36:12.319Z,99.90
2022-08-30T01:38:48.718Z,99.90
2022-08-30T01:41:22.290Z,99.90
2022-08-30T01:43:50.863Z,99.90
2022-08-30T01:46:20.405Z,99.90
2022-08-30T01:48:52.005Z,99.90
2022-08-30T01:51:24.462Z,99.90
2022-08-30T01:53:52.986Z,99.90
2022-08-30T01:56:20.460Z,99.90
2022-08-30T01:58:50.083Z,99.90
2022-08-30T02:01:22.285Z,99.90
2022-08-30T02:03:49.851Z,99.90
2022-08-30T02:06:22.843Z,99.90
2022-08-30T02:08:50.429Z,99.90
2022-08-30T02:11:17.962Z,99.90
2022-08-30T02:13:46.227Z,99.90
2022-08-30T02:16:17.435Z,99.90
2022-08-30T02:18:45.515Z,99.90
2022-08-30T02:21:13.968Z,99.90
2022-08-30T02:23:42.031Z,99.90
2022-08-30T02:26:10.652Z,99.90
2022-08-30T02:28:42.841Z,99.90
2022-08-30T02:31:20.393Z,99.90
2022-08-30T02:33:50.768Z,99.90
2022-08-30T02:36:20.704Z,99.90
2022-08-30T02:38:49.246Z,99.90
2022-08-30T02:41:17.500Z,99.90
2022-08-30T02:43:47.284Z,99.90
2022-08-30T02:46:14.649Z,99.90
2022-08-30T02:48:42.761Z,99.90
2022-08-30T02:51:12.850Z,99.90
2022-08-30T02:53:43.696Z,99.90
2022-08-30T02:56:13.736Z,99.90
2022-08-30T02:58:42.581Z,99.90
2022-08-30T03:01:18.387Z,99.90
2022-08-30T03:03:47.307Z,99.90
2022-08-30T03:06:14.986Z,99.90
2022-08-30T03:08:45.071Z,99.90
2022-08-30T03:11:13.788Z,99.90
2022-08-30T03:13:41.599Z,99.90
2022-08-30T03:16:11.859Z,99.90
2022-08-30T03:18:43.157Z,99.90
2022-08-30T03:21:15.848Z,99.90
2022-08-30T03:23:44.148Z,99.90
2022-08-30T03:26:14.759Z,99.90
2022-08-30T03:28:45.431Z,99.90
2022-08-30T03:31:15.235Z,99.90
2022-08-30T03:33:43.248Z,99.90
2022-08-30T03:36:10.973Z,99.90
2022-08-30T03:38:38.857Z,99.90
2022-08-30T03:41:09.180Z,99.90
2022-08-30T03:43:41.153Z,99.90
2022-08-30T03:46:11.932Z,99.90
2022-08-30T03:48:39.610Z,99.90
2022-08-30T03:51:06.860Z,99.90
2022-08-30T03:53:37.082Z,99.90
2022-08-30T03:56:04.458Z,99.90
2022-08-30T03:58:31.774Z,99.90
2022-08-30T04:00:59.511Z,99.90
2022-08-30T04:03:26.814Z,99.90
2022-08-30T04:05:56.843Z,99.90
2022-08-30T04:08:26.781Z,99.90
2022-08-30T04:10:55.558Z,99.90
2022-08-30T04:13:24.148Z,99.90
2022-08-30T04:15:51.507Z,99.90
2022-08-30T04:18:21.322Z,99.90
2022-08-30T04:20:49.133Z,99.90
2022-08-30T04:23:21.536Z,99.90
2022-08-30T04:25:48.871Z,99.90
2022-08-30T04:28:21.501Z,99.90
2022-08-30T04:30:51.605Z,99.90
2022-08-30T04:33:19.715Z,99.90
2022-08-30T04:35:50.509Z,99.90
2022-08-30T04:38:18.417Z,99.90
2022-08-30T04:40:50.151Z,99.90
2022-08-30T04:43:20.062Z,99.90
2022-08-30T04:45:48.224Z,99.90
2022-08-30T04:48:18.539Z,99.90
2022-08-30T04:50:46.540Z,99.90
2022-08-30T04:53:17.703Z,99.90
2022-08-30T04:55:47.423Z,99.90
2022-08-30T04:58:19.951Z,99.90
2022-08-30T05:00:47.246Z,99.90
2022-08-30T05:03:16.240Z,99.90
2022-08-30T05:05:50.830Z,99.90
2022-08-30T05:08:24.778Z,99.90
2022-08-30T05:10:55.671Z,99.90
2022-08-30T05:13:26.228Z,99.90
2022-08-30T05:16:07.831Z,99.90
2022-08-30T05:18:39.273Z,99.90
2022-08-30T05:21:13.282Z,99.90
2022-08-30T05:23:41.558Z,99.90
2022-08-30T05:26:14.609Z,99.90
2022-08-30T05:28:47.768Z,99.90
2022-08-30T05:31:26.164Z,99.90
2022-08-30T05:33:55.048Z,99.90
2022-08-30T05:36:27.548Z,99.90
2022-08-30T05:38:56.286Z,99.90
2022-08-30T05:41:26.712Z,99.90
2022-08-30T05:43:58.334Z,99.90
2022-08-30T05:49:10.737Z,99.90
2022-08-30T05:51:43.294Z,99.90
2022-08-30T05:54:13.105Z,99.90
2022-08-30T05:56:41.715Z,99.90
2022-08-30T05:59:09.209Z,99.90
2022-08-30T06:01:42.690Z,99.90
2022-08-30T06:04:16.269Z,99.90
2022-08-30T06:06:44.374Z,99.90
2022-08-30T06:09:13.439Z,99.90
2022-08-30T06:11:41.516Z,99.90
2022-08-30T06:14:09.050Z,99.90
2022-08-30T06:16:38.883Z,99.90
2022-08-30T06:19:11.204Z,99.90
2022-08-30T06:21:42.417Z,99.90
2022-08-30T06:24:11.354Z,99.90
2022-08-30T06:26:42.340Z,99.90
2022-08-30T06:29:16.791Z,99.90
2022-08-30T06:31:44.406Z,99.90
2022-08-30T06:34:12.289Z,99.90
2022-08-30T06:36:40.124Z,99.90
2022-08-30T06:39:09.960Z,99.90
2022-08-30T06:41:39.157Z,99.90
2022-08-30T06:44:06.707Z,99.90
2022-08-30T06:46:37.212Z,99.90
2022-08-30T06:49:06.259Z,99.90
2022-08-30T06:51:39.727Z,99.90
2022-08-30T06:54:10.730Z,99.90
2022-08-30T06:56:57.803Z,99.90
2022-08-30T06:59:27.031Z,99.90
2022-08-30T07:01:57.658Z,99.90
2022-08-30T07:04:28.899Z,99.90
2022-08-30T07:06:58.987Z,99.90
2022-08-30T07:09:26.435Z,99.90
2022-08-30T07:11:54.234Z,99.90
2022-08-30T07:14:22.543Z,99.90
2022-08-30T07:16:51.147Z,99.90
2022-08-30T07:19:21.056Z,99.90
2022-08-30T07:21:51.770Z,99.90
2022-08-30T07:24:21.191Z,99.90
2022-08-30T07:26:51.723Z,99.90
2022-08-30T07:29:21.172Z,99.90
2022-08-30T07:31:48.813Z,99.90
2022-08-30T07:34:16.419Z,99.90
2022-08-30T07:36:44.155Z,99.90
2022-08-30T07:39:11.941Z,99.90
2022-08-30T07:41:41.842Z,99.90
2022-08-30T07:44:09.266Z,99.90
2022-08-30T07:46:38.623Z,99.90
2022-08-30T07:49:10.983Z,99.90
2022-08-30T07:51:40.490Z,99.90
2022-08-30T07:54:08.159Z,99.90
2022-08-30T07:56:36.782Z,99.90
2022-08-30T07:59:04.456Z,99.90
2022-08-30T08:01:32.966Z,99.90
2022-08-30T08:04:02.955Z,99.90
2022-08-30T08:06:35.202Z,99.90
2022-08-30T08:09:02.898Z,99.90
2022-08-30T08:11:33.819Z,99.90
2022-08-30T08:14:02.351Z,99.90
2022-08-30T08:16:31.582Z,99.90
2022-08-30T08:19:02.360Z,99.40
2022-08-30T08:21:32.094Z,97.80
2022-08-30T08:23:59.313Z,97.10
2022-08-30T08:26:26.976Z,97.10
2022-08-30T08:28:59.668Z,97.00
2022-08-30T08:31:33.412Z,96.10
2022-08-30T08:34:06.233Z,96.00
2022-08-30T08:36:35.741Z,96.40
2022-08-30T08:39:08.174Z,94.80
2022-08-30T08:42:08.953Z,94.70
2022-08-30T08:45:05.442Z,93.60
2022-08-30T08:48:13.900Z,92.90
2022-08-30T08:51:02.746Z,91.90
2022-08-30T08:53:45.961Z,90.80
2022-08-30T08:56:17.576Z,90.50
2022-08-30T08:58:51.510Z,86.70
2022-08-30T09:01:28.668Z,85.40
2022-08-30T09:04:07.883Z,86.50
2022-08-30T09:06:53.813Z,86.80
2022-08-30T09:09:46.448Z,85.00
2022-08-30T09:12:16.349Z,84.90
2022-08-30T09:14:48.220Z,84.00
2022-08-30T09:17:17.755Z,83.40
2022-08-30T09:19:59.037Z,78.60
2022-08-30T09:22:46.791Z,81.00
2022-08-30T09:25:28.789Z,78.00
2022-08-30T09:28:12.959Z,78.60
2022-08-30T09:31:27.000Z,76.90
2022-08-30T09:34:05.558Z,79.80
2022-08-30T09:36:44.036Z,78.00
2022-08-30T09:39:33.674Z,79.50
2022-08-30T09:42:31.086Z,78.70
2022-08-30T09:45:10.506Z,80.50
2022-08-30T09:47:43.202Z,80.10
2022-08-30T09:50:17.917Z,79.20
2022-08-30T09:53:31.130Z,80.00
2022-08-30T09:56:20.954Z,81.10
2022-08-30T09:59:19.265Z,80.60
2022-08-30T10:01:57.010Z,79.20
2022-08-30T10:05:01.744Z,80.50
2022-08-30T10:07:42.744Z,82.60
2022-08-30T10:10:51.260Z,82.40
2022-08-30T10:13:42.941Z,84.30
2022-08-30T10:16:21.262Z,82.60
2022-08-30T10:19:06.211Z,81.90
2022-08-30T10:21:45.223Z,81.30
2022-08-30T10:24:21.340Z,78.70
2022-08-30T10:27:03.308Z,80.20
2022-08-30T10:29:44.843Z,82.40
2022-08-30T10:32:28.438Z,81.30
2022-08-30T10:35:19.312Z,78.00
2022-08-30T10:37:57.126Z,76.90
2022-08-30T10:40:50.712Z,79.10
2022-08-30T10:43:42.924Z,77.60
2022-08-30T10:46:41.782Z,78.50
2022-08-30T10:49:19.799Z,79.90
2022-08-30T10:51:58.898Z,80.20
2022-08-30T10:54:50.442Z,78.70
2022-08-30T10:57:21.277Z,79.00
2022-08-30T10:59:56.736Z,79.20
2022-08-30T11:02:39.194Z,76.80
2022-08-30T11:05:28.101Z,78.20
2022-08-30T11:08:00.462Z,76.20
2022-08-30T11:10:56.916Z,76.40
2022-08-30T11:13:27.466Z,74.30
2022-08-30T11:15:59.862Z,74.70
2022-08-30T11:18:43.344Z,74.90
2022-08-30T11:21:42.519Z,74.20
2022-08-30T11:24:25.344Z,74.30
2022-08-30T11:26:59.580Z,72.70
2022-08-30T11:29:35.425Z,72.20
2022-08-30T11:32:17.250Z,75.60
2022-08-30T11:34:47.442Z,75.90
2022-08-30T11:37:15.302Z,75.40
2022-08-30T11:39:47.164Z,74.60
2022-08-30T11:42:42.440Z,74.50
2022-08-30T11:45:26.821Z,75.20
2022-08-30T11:48:00.700Z,70.30
2022-08-30T11:51:04.414Z,70.90
2022-08-30T11:53:48.324Z,73.80
2022-08-30T11:56:49.107Z,74.00
2022-08-30T11:59:54.192Z,73.30
2022-08-30T12:02:50.454Z,71.50
2022-08-30T12:05:38.180Z,74.40
2022-08-30T12:08:20.358Z,75.00
2022-08-30T12:10:56.312Z,76.10
2022-08-30T12:13:38.784Z,73.70
2022-08-30T12:16:16.215Z,75.40
2022-08-30T12:18:52.773Z,74.60
2022-08-30T12:21:28.682Z,73.60
2022-08-30T12:24:10.071Z,73.50
2022-08-30T12:26:42.933Z,71.60
2022-08-30T12:29:17.951Z,73.00
2022-08-30T12:31:51.932Z,75.80
2022-08-30T12:34:27.740Z,75.60
2022-08-30T12:37:26.282Z,72.40
2022-08-30T12:40:14.627Z,72.60
2022-08-30T12:42:55.569Z,71.70
2022-08-30T12:45:26.893Z,72.50
2022-08-30T12:48:04.408Z,72.20
2022-08-30T12:50:37.826Z,71.90
2022-08-30T12:53:13.926Z,70.20
2022-08-30T12:56:14.254Z,71.10
2022-08-30T12:58:53.264Z,66.60
2022-08-30T13:01:36.922Z,68.30
2022-08-30T13:04:21.990Z,72.20
2022-08-30T13:07:01.105Z,73.30
2022-08-30T13:09:44.069Z,72.00
2022-08-30T13:12:23.042Z,72.50
2022-08-30T13:14:52.415Z,71.10
2022-08-30T13:17:30.289Z,69.90
2022-08-30T13:20:30.396Z,70.60
2022-08-30T13:23:03.528Z,69.90
2022-08-30T13:25:32.831Z,70.00
2022-08-30T13:28:02.213Z,71.40
2022-08-30T13:30:30.787Z,70.80
2022-08-30T13:32:58.936Z,71.90
2022-08-30T13:35:30.517Z,71.70
2022-08-30T13:38:00.998Z,73.50
2022-08-30T13:40:28.498Z,73.10
2022-08-30T13:42:55.830Z,75.00
2022-08-30T13:45:45.695Z,76.00
2022-08-30T13:48:17.355Z,73.50
2022-08-30T13:50:55.491Z,74.90
2022-08-30T13:56:14.044Z,72.40
2022-08-30T13:58:42.169Z,72.70
2022-08-30T14:01:12.014Z,73.80
2022-08-30T14:04:13.186Z,72.20
2022-08-30T14:06:34.336Z,71.60
2022-08-30T14:09:06.312Z,71.30
2022-08-30T14:11:34.995Z,73.70
2022-08-30T14:14:30.213Z,72.00
2022-08-30T14:16:53.559Z,71.80
2022-08-30T14:19:20.972Z,71.80
2022-08-30T14:21:48.886Z,72.10
2022-08-30T14:24:19.940Z,71.90
2022-08-30T14:26:51.256Z,72.20
2022-08-30T14:29:21.975Z,71.50
2022-08-30T14:31:49.435Z,71.20
2022-08-30T14:34:17.602Z,73.10
2022-08-30T14:36:46.254Z,74.10
2022-08-30T14:39:20.226Z,71.10
2022-08-30T14:41:54.093Z,71.20
2022-08-30T14:44:25.869Z,72.50
2022-08-30T14:46:58.683Z,73.60
2022-08-30T14:49:27.739Z,73.60
2022-08-30T14:51:58.179Z,73.30
2022-08-30T14:54:28.631Z,74.40
2022-08-30T14:56:56.330Z,75.20
2022-08-30T14:59:25.124Z,72.80
2022-08-30T15:01:53.164Z,74.20
2022-08-30T15:04:23.949Z,73.50
2022-08-30T15:06:53.336Z,74.10
2022-08-30T15:09:23.854Z,73.50
2022-08-30T15:11:59.605Z,73.80
2022-08-30T15:14:31.378Z,74.60
2022-08-30T15:17:02.555Z,73.80
2022-08-30T15:19:31.189Z,73.50
2022-08-30T15:22:07.147Z,73.00
2022-08-30T15:24:35.593Z,74.20
2022-08-30T15:27:06.479Z,73.00
2022-08-30T15:29:33.785Z,73.60
2022-08-30T15:32:02.958Z,74.70
2022-08-30T15:34:33.453Z,76.30
2022-08-30T15:37:01.429Z,75.80
2022-08-30T15:39:29.212Z,76.20
2022-08-30T15:42:00.640Z,76.20
2022-08-30T15:44:30.944Z,76.60
2022-08-30T15:46:59.354Z,76.20
2022-08-30T15:49:29.129Z,78.40
2022-08-30T15:52:02.258Z,78.50
2022-08-30T15:54:30.474Z,77.30
2022-08-30T15:57:00.309Z,77.30
2022-08-30T15:59:32.506Z,77.30
2022-08-30T16:02:02.063Z,77.80
2022-08-30T16:04:30.585Z,76.00
2022-08-30T16:07:00.968Z,76.00
2022-08-30T16:09:32.636Z,76.30
2022-08-30T16:12:04.653Z,76.60
2022-08-30T16:14:33.063Z,76.80
2022-08-30T16:17:02.998Z,75.80
2022-08-30T16:19:30.785Z,76.60
2022-08-30T16:21:59.308Z,77.00
2022-08-30T16:24:26.829Z,76.70
2022-08-30T16:26:54.617Z,75.80
2022-08-30T16:29:25.121Z,75.70
2022-08-30T16:31:53.492Z,75.10
2022-08-30T16:34:22.413Z,75.40
2022-08-30T16:36:49.857Z,77.00
2022-08-30T16:39:19.621Z,77.40
2022-08-30T16:41:48.295Z,75.50
2022-08-30T16:44:17.739Z,75.50
2022-08-30T16:46:53.157Z,75.80
2022-08-30T16:49:25.782Z,75.40
2022-08-30T16:51:53.946Z,75.50
2022-08-30T16:54:22.227Z,75.60
2022-08-30T16:56:50.030Z,76.60
2022-08-30T16:59:17.710Z,77.50
2022-08-30T17:01:46.225Z,77.30
2022-08-30T17:04:18.381Z,75.90
2022-08-30T17:06:50.046Z,75.80
2022-08-30T17:09:20.253Z,75.90
2022-08-30T17:11:48.667Z,76.50
2022-08-30T17:14:21.582Z,76.50
2022-08-30T17:17:00.919Z,75.90
2022-08-30T17:19:28.676Z,75.50
2022-08-30T17:21:57.097Z,75.00
2022-08-30T17:24:25.662Z,75.30
2022-08-30T17:26:54.467Z,76.00
2022-08-30T17:29:21.843Z,75.90
2022-08-30T17:31:51.208Z,75.60
2022-08-30T17:34:22.099Z,75.30
2022-08-30T17:36:55.499Z,75.90
2022-08-30T17:39:26.732Z,75.80
2022-08-30T17:41:54.616Z,76.20
2022-08-30T17:44:28.458Z,76.50
2022-08-30T17:46:57.265Z,75.50
2022-08-30T17:49:28.460Z,75.70
2022-08-30T17:52:03.608Z,75.60
2022-08-30T17:54:34.033Z,75.90
2022-08-30T17:57:03.863Z,76.30
2022-08-30T17:59:35.568Z,75.60
2022-08-30T18:02:03.765Z,76.10
2022-08-30T18:04:34.062Z,74.80
2022-08-30T18:07:06.457Z,75.80
2022-08-30T18:09:36.169Z,76.50
2022-08-30T18:12:04.973Z,76.10
2022-08-30T18:14:39.407Z,76.10
2022-08-30T18:17:12.099Z,75.20
2022-08-30T18:19:46.327Z,75.90
2022-08-30T18:22:15.624Z,76.40
2022-08-30T18:24:43.091Z,76.70
2022-08-30T18:27:13.909Z,76.60
2022-08-30T18:29:43.430Z,77.10
2022-08-30T18:32:13.211Z,77.10
2022-08-30T18:34:42.979Z,76.80
2022-08-30T18:37:12.487Z,76.10
2022-08-30T18:39:41.818Z,75.90
2022-08-30T18:42:11.766Z,76.40
2022-08-30T18:44:43.554Z,76.30
2022-08-30T18:47:15.881Z,75.50
2022-08-30T18:49:45.553Z,75.60
2022-08-30T18:52:13.816Z,75.40
2022-08-30T18:54:52.614Z,75.00
2022-08-30T18:57:23.762Z,75.30
2022-08-30T18:59:51.829Z,74.50
2022-08-30T19:02:27.675Z,75.00
2022-08-30T19:04:55.432Z,75.10
2022-08-30T19:07:26.688Z,75.90
2022-08-30T19:10:00.661Z,75.10
2022-08-30T19:12:28.960Z,76.40
2022-08-30T19:14:56.703Z,75.20
2022-08-30T19:17:28.517Z,75.00
2022-08-30T19:19:56.041Z,74.80
2022-08-30T19:22:24.149Z,75.00
2022-08-30T19:24:55.203Z,74.90
2022-08-30T19:27:38.327Z,73.90
2022-08-30T19:30:21.666Z,74.50
2022-08-30T19:32:52.962Z,74.50
2022-08-30T19:35:20.850Z,73.40
2022-08-30T19:37:48.276Z,74.00
2022-08-30T19:40:20.751Z,73.30
2022-08-30T19:42:51.511Z,74.30
2022-08-30T19:45:22.984Z,73.90
2022-08-30T19:47:51.954Z,74.30
2022-08-30T19:50:21.090Z,74.00
2022-08-30T19:52:53.722Z,75.20
2022-08-30T19:55:23.830Z,74.10
2022-08-30T19:57:56.821Z,74.30
2022-08-30T20:00:26.562Z,74.30
2022-08-30T20:02:53.889Z,74.10
2022-08-30T20:05:22.771Z,75.00
2022-08-30T20:07:51.561Z,75.00
2022-08-30T20:10:20.706Z,74.60
2022-08-30T20:12:53.563Z,75.10
2022-08-30T20:15:21.310Z,75.80
2022-08-30T20:18:06.249Z,75.80
2022-08-30T20:20:37.575Z,76.10
2022-08-30T20:23:06.809Z,76.30
2022-08-30T20:25:36.095Z,76.20
2022-08-30T20:28:04.256Z,76.40
2022-08-30T20:30:34.523Z,76.50
2022-08-30T20:33:06.956Z,76.60
2022-08-30T20:35:42.111Z,76.30
2022-08-30T20:38:20.673Z,76.20
2022-08-30T20:40:53.817Z,76.40
2022-08-30T20:43:28.795Z,76.40
2022-08-30T20:45:56.764Z,76.30
2022-08-30T20:48:27.066Z,76.40
2022-08-30T20:50:55.003Z,76.90
2022-08-30T20:53:22.283Z,77.40
2022-08-30T20:55:50.736Z,77.60
2022-08-30T20:58:18.203Z,77.50
2022-08-30T21:00:53.148Z,77.00
2022-08-30T21:03:27.765Z,77.10
2022-08-30T21:05:59.988Z,77.60
2022-08-30T21:08:27.613Z,77.70
2022-08-30T21:10:55.194Z,78.10
2022-08-30T21:13:25.151Z,77.70
2022-08-30T21:16:03.959Z,77.60
2022-08-30T21:18:34.092Z,77.80
2022-08-30T21:21:21.126Z,78.20
2022-08-30T21:24:00.125Z,78.10
2022-08-30T21:26:28.214Z,79.50
2022-08-30T21:28:56.052Z,78.80
2022-08-30T21:31:26.050Z,78.90
2022-08-30T21:33:54.881Z,79.40
2022-08-30T21:36:44.770Z,79.10
2022-08-30T21:39:26.214Z,79.10
2022-08-30T21:41:59.738Z,78.60
2022-08-30T21:44:29.516Z,78.10
2022-08-30T21:46:59.263Z,78.40
2022-08-30T21:49:29.094Z,78.80
2022-08-30T21:51:58.754Z,78.70
2022-08-30T21:54:31.265Z,78.80
2022-08-30T21:57:01.613Z,79.60
2022-08-30T21:59:29.130Z,79.50
2022-08-30T22:01:59.070Z,79.50
2022-08-30T22:04:26.913Z,79.00
2022-08-30T22:06:56.914Z,78.80
2022-08-30T22:09:28.178Z,78.60
2022-08-30T22:11:56.122Z,78.90
2022-08-30T22:14:24.596Z,79.40
2022-08-30T22:16:53.816Z,79.00
2022-08-30T22:19:24.226Z,79.50
2022-08-30T22:22:00.860Z,79.20
2022-08-30T22:24:32.616Z,79.30
2022-08-30T22:27:02.051Z,79.40
2022-08-30T22:29:33.813Z,79.30
2022-08-30T22:32:01.183Z,78.60
2022-08-30T22:34:31.914Z,79.00
2022-08-30T22:36:59.463Z,79.30
2022-08-30T22:39:29.695Z,79.50
2022-08-30T22:42:01.790Z,79.90
2022-08-30T22:44:29.056Z,79.50
2022-08-30T22:46:56.297Z,79.90
2022-08-30T22:49:23.970Z,80.00
2022-08-30T22:51:51.199Z,80.60
2022-08-30T22:54:19.009Z,80.80
2022-08-30T22:56:49.927Z,81.00
2022-08-30T22:59:17.683Z,80.80
2022-08-30T23:01:49.787Z,80.80
2022-08-30T23:04:19.662Z,80.90
2022-08-30T23:06:49.900Z,80.80
2022-08-30T23:09:22.754Z,80.90
2022-08-30T23:11:50.003Z,81.30
2022-08-30T23:14:17.678Z,81.10
2022-08-30T23:16:47.945Z,81.70
2022-08-30T23:19:17.798Z,81.70
2022-08-30T23:21:45.051Z,81.60
2022-08-30T23:24:30.937Z,81.50
2022-08-30T23:27:16.624Z,81.80
2022-08-30T23:30:02.912Z,82.10
2022-08-30T23:32:48.803Z,82.50
2022-08-30T23:35:34.682Z,82.90
2022-08-30T23:38:24.893Z,82.80
2022-08-30T23:41:10.920Z,82.80
2022-08-30T23:43:56.770Z,82.80
2022-08-30T23:46:42.506Z,82.90
2022-08-30T23:49:28.435Z,83.20
2022-08-30T23:52:14.132Z,82.90
2022-08-30T23:55:00.071Z,83.30
2022-08-30T23:57:46.507Z,84.00
